createdAt,value
2017-07-30T00:00:45.637Z,68.50
2017-07-30T00:03:13.091Z,68.40
2017-07-30T00:05:40.527Z,68.80
2017-07-30T00:08:08.013Z,68.90
2017-07-30T00:10:35.486Z,69.00
2017-07-30T00:13:03.716Z,69.50
2017-07-30T00:15:31.176Z,69.50
2017-07-30T00:17:59.453Z,69.30
2017-07-30T00:20:27.657Z,69.80
2017-07-30T00:22:55.105Z,69.80
2017-07-30T00:25:22.556Z,70.00
2017-07-30T00:27:49.998Z,69.60
2017-07-30T00:30:17.441Z,70.10
2017-07-30T00:32:44.893Z,70.00
2017-07-30T00:35:12.352Z,70.20
2017-07-30T00:37:40.580Z,70.00
2017-07-30T00:40:08.014Z,70.40
2017-07-30T00:45:09.489Z,70.80
2017-07-30T00:47:36.921Z,70.70
2017-07-30T00:50:04.363Z,70.70
2017-07-30T00:52:31.801Z,70.80
2017-07-30T00:54:59.272Z,70.90
2017-07-30T00:57:27.484Z,71.10
2017-07-30T00:59:54.963Z,70.80
2017-07-30T01:02:22.396Z,70.80
2017-07-30T01:04:49.837Z,71.00
2017-07-30T01:07:17.341Z,71.40
2017-07-30T01:09:44.804Z,71.20
2017-07-30T01:12:12.390Z,71.10
2017-07-30T01:14:39.938Z,71.10
2017-07-30T01:17:08.142Z,70.90
2017-07-30T01:19:35.584Z,70.90
2017-07-30T01:22:03.095Z,71.10
2017-07-30T01:24:31.312Z,71.30
2017-07-30T01:26:58.737Z,71.30
2017-07-30T01:29:26.194Z,71.60
2017-07-30T01:31:53.684Z,71.50
2017-07-30T01:34:21.891Z,71.40
2017-07-30T01:36:49.367Z,71.30
2017-07-30T01:39:16.823Z,71.70
2017-07-30T01:41:44.288Z,71.80
2017-07-30T01:44:12.521Z,71.70
2017-07-30T01:46:40.782Z,72.30
2017-07-30T01:49:09.009Z,72.50
2017-07-30T01:51:36.456Z,71.80
2017-07-30T01:54:03.908Z,71.70
2017-07-30T01:56:31.370Z,71.70
2017-07-30T01:58:58.816Z,72.00
2017-07-30T02:01:27.073Z,71.90
2017-07-30T02:03:54.530Z,71.80
2017-07-30T02:06:22.888Z,71.90
2017-07-30T02:08:50.418Z,71.90
2017-07-30T02:11:17.968Z,71.80
2017-07-30T02:13:46.205Z,72.30
2017-07-30T02:16:13.661Z,71.90
2017-07-30T02:18:41.114Z,72.10
2017-07-30T02:21:08.554Z,72.50
2017-07-30T02:23:36.011Z,72.30
2017-07-30T02:26:04.232Z,72.20
2017-07-30T02:28:31.689Z,72.10
2017-07-30T02:30:59.148Z,72.10
2017-07-30T02:33:26.588Z,72.20
2017-07-30T02:35:54.041Z,72.40
2017-07-30T02:38:22.298Z,73.00
2017-07-30T02:40:49.839Z,72.80
2017-07-30T02:43:18.069Z,73.10
2017-07-30T02:45:45.633Z,73.10
2017-07-30T02:48:13.080Z,73.00
2017-07-30T02:50:40.524Z,72.90
2017-07-30T02:53:07.955Z,72.70
2017-07-30T02:55:35.410Z,72.80
2017-07-30T02:58:02.863Z,73.20
2017-07-30T03:00:31.068Z,73.30
2017-07-30T03:02:58.513Z,73.30
2017-07-30T03:05:25.968Z,73.10
2017-07-30T03:07:53.412Z,73.00
2017-07-30T03:10:20.866Z,72.80
2017-07-30T03:12:48.341Z,72.70
2017-07-30T03:15:16.541Z,72.30
2017-07-30T03:17:44.047Z,72.30
2017-07-30T03:20:12.254Z,72.10
2017-07-30T03:22:39.804Z,72.10
2017-07-30T03:25:07.275Z,71.90
2017-07-30T03:27:34.732Z,71.70
2017-07-30T03:30:02.933Z,72.00
2017-07-30T03:32:30.373Z,71.10
2017-07-30T03:34:57.830Z,71.10
2017-07-30T03:37:25.284Z,70.90
2017-07-30T03:39:52.716Z,70.80
2017-07-30T03:42:20.162Z,70.70
2017-07-30T03:44:47.746Z,70.60
2017-07-30T03:47:15.948Z,70.30
2017-07-30T03:49:43.376Z,70.30
2017-07-30T03:52:10.898Z,70.10
2017-07-30T03:54:39.109Z,70.00
2017-07-30T03:57:06.541Z,70.00
2017-07-30T03:59:33.997Z,70.00
2017-07-30T04:02:01.473Z,69.90
2017-07-30T04:04:28.928Z,69.60
2017-07-30T04:06:57.124Z,68.80
2017-07-30T04:09:24.581Z,69.10
2017-07-30T04:11:52.016Z,69.10
2017-07-30T04:14:19.455Z,68.90
2017-07-30T04:16:46.901Z,69.20
2017-07-30T04:19:14.358Z,68.80
2017-07-30T04:21:41.763Z,68.70
2017-07-30T04:24:09.284Z,68.80
2017-07-30T04:26:36.711Z,68.80
2017-07-30T04:29:04.148Z,68.50
2017-07-30T04:31:31.597Z,68.40
2017-07-30T04:33:59.045Z,68.20
2017-07-30T04:36:26.509Z,68.00
2017-07-30T04:38:54.865Z,67.50
2017-07-30T04:41:23.059Z,67.40
2017-07-30T04:43:50.514Z,67.40
2017-07-30T04:46:18.003Z,67.10
2017-07-30T04:48:45.531Z,66.80
2017-07-30T04:51:12.965Z,66.50
2017-07-30T04:53:40.420Z,66.20
2017-07-30T04:56:07.881Z,66.30
2017-07-30T04:58:35.318Z,66.20
2017-07-30T05:01:02.754Z,66.10
2017-07-30T05:03:30.179Z,65.90
2017-07-30T05:05:57.620Z,66.20
2017-07-30T05:08:25.076Z,66.30
2017-07-30T05:10:52.748Z,65.60
2017-07-30T05:13:20.944Z,65.20
2017-07-30T05:15:48.393Z,65.10
2017-07-30T05:18:15.832Z,65.00
2017-07-30T05:20:43.316Z,64.50
2017-07-30T05:23:10.748Z,64.50
2017-07-30T05:25:38.196Z,64.40
2017-07-30T05:28:05.633Z,65.00
2017-07-30T05:30:33.087Z,63.70
2017-07-30T05:33:00.512Z,63.20
2017-07-30T05:35:27.956Z,62.70
2017-07-30T05:37:55.380Z,62.40
2017-07-30T05:40:22.861Z,62.20
2017-07-30T05:42:50.297Z,60.70
2017-07-30T05:45:17.733Z,60.40
2017-07-30T05:47:45.209Z,59.90
2017-07-30T05:50:13.556Z,59.40
2017-07-30T05:52:40.997Z,59.40
2017-07-30T05:55:08.426Z,59.20
2017-07-30T05:57:35.860Z,58.30
2017-07-30T06:00:03.293Z,57.50
2017-07-30T06:02:30.737Z,56.90
2017-07-30T06:04:58.181Z,56.50
2017-07-30T06:07:25.637Z,56.50
2017-07-30T06:09:53.077Z,56.50
2017-07-30T06:12:20.534Z,54.50
2017-07-30T06:14:48.086Z,54.20
2017-07-30T06:17:15.620Z,53.70
2017-07-30T06:19:43.053Z,53.70
2017-07-30T06:22:10.495Z,53.30
2017-07-30T06:24:37.920Z,52.80
2017-07-30T06:27:05.388Z,52.70
2017-07-30T06:29:32.829Z,52.70
2017-07-30T06:32:00.389Z,52.20
2017-07-30T06:34:27.821Z,51.90
2017-07-30T06:36:55.374Z,51.70
2017-07-30T06:39:22.817Z,51.60
2017-07-30T06:41:50.260Z,51.10
2017-07-30T06:44:17.792Z,50.90
2017-07-30T06:46:45.244Z,49.80
2017-07-30T06:49:12.781Z,49.30
2017-07-30T06:51:40.221Z,49.30
2017-07-30T06:54:07.676Z,48.30
2017-07-30T06:56:35.216Z,47.80
2017-07-30T06:59:02.763Z,46.70
2017-07-30T07:01:30.312Z,47.60
2017-07-30T07:03:57.739Z,46.10
2017-07-30T07:06:25.174Z,44.80
2017-07-30T07:08:52.628Z,44.40
2017-07-30T07:11:20.048Z,41.80
2017-07-30T07:13:47.497Z,40.90
2017-07-30T07:16:14.952Z,41.00
2017-07-30T07:18:42.413Z,40.60
2017-07-30T07:21:10.673Z,39.40
2017-07-30T07:23:38.944Z,39.70
2017-07-30T07:26:07.176Z,40.00
2017-07-30T07:28:34.617Z,39.90
2017-07-30T07:31:02.049Z,40.80
2017-07-30T07:33:29.521Z,40.90
2017-07-30T07:35:57.077Z,41.70
2017-07-30T07:38:25.281Z,41.80
2017-07-30T07:40:53.130Z,41.80
2017-07-30T07:43:20.577Z,41.60
2017-07-30T07:45:48.031Z,41.00
2017-07-30T07:48:15.508Z,41.20
2017-07-30T07:50:42.954Z,42.00
2017-07-30T07:53:10.390Z,41.60
2017-07-30T07:55:37.832Z,41.60
2017-07-30T07:58:05.269Z,40.10
2017-07-30T08:00:32.722Z,39.00
2017-07-30T08:03:00.153Z,39.30
2017-07-30T08:05:27.612Z,39.00
2017-07-30T08:07:55.969Z,38.80
2017-07-30T08:10:23.452Z,38.00
2017-07-30T08:12:50.945Z,36.70
2017-07-30T08:15:18.402Z,35.80
2017-07-30T08:17:45.931Z,34.90
2017-07-30T08:20:13.402Z,34.90
2017-07-30T08:22:41.631Z,33.80
2017-07-30T08:25:09.069Z,33.70
2017-07-30T08:27:36.503Z,32.90
2017-07-30T08:30:03.946Z,33.60
2017-07-30T08:32:31.377Z,33.80
2017-07-30T08:34:58.833Z,33.60
2017-07-30T08:37:26.298Z,34.20
2017-07-30T08:39:53.837Z,34.00
2017-07-30T08:42:21.725Z,34.40
2017-07-30T08:44:49.987Z,34.20
2017-07-30T08:47:18.329Z,33.10
2017-07-30T08:49:46.532Z,33.00
2017-07-30T08:52:13.981Z,33.00
2017-07-30T08:54:41.461Z,32.50
2017-07-30T08:57:09.461Z,30.90
2017-07-30T08:59:36.908Z,31.30
2017-07-30T09:02:04.341Z,31.90
2017-07-30T09:04:31.773Z,30.60
2017-07-30T09:06:59.985Z,28.90
2017-07-30T09:09:27.448Z,28.80
2017-07-30T09:11:55.191Z,28.40
2017-07-30T09:14:23.263Z,28.40
2017-07-30T09:16:50.732Z,27.90
2017-07-30T09:19:18.165Z,27.10
2017-07-30T09:21:46.453Z,26.40
2017-07-30T09:24:13.905Z,26.30
2017-07-30T09:26:41.346Z,27.20
2017-07-30T09:29:08.804Z,26.50
2017-07-30T09:31:36.248Z,26.50
2017-07-30T09:34:03.699Z,27.00
2017-07-30T09:36:31.137Z,26.90
2017-07-30T09:38:58.578Z,27.00
2017-07-30T09:41:26.057Z,27.00
2017-07-30T09:43:54.297Z,26.20
2017-07-30T09:46:21.763Z,26.30
2017-07-30T09:48:49.210Z,27.00
2017-07-30T09:51:17.422Z,26.00
2017-07-30T09:53:44.864Z,26.00
2017-07-30T09:56:12.333Z,26.70
2017-07-30T09:58:39.775Z,27.10
2017-07-30T10:01:07.209Z,26.70
2017-07-30T10:03:34.690Z,26.30
2017-07-30T10:06:02.899Z,26.10
2017-07-30T10:08:30.353Z,26.10
2017-07-30T10:10:57.948Z,26.30
2017-07-30T10:13:25.472Z,25.50
2017-07-30T10:15:52.923Z,26.40
2017-07-30T10:18:21.189Z,24.50
2017-07-30T10:20:49.423Z,24.70
2017-07-30T10:23:16.844Z,24.80
2017-07-30T10:25:44.292Z,24.20
2017-07-30T10:28:11.741Z,23.80
2017-07-30T10:30:39.175Z,24.00
2017-07-30T10:33:06.669Z,24.10
2017-07-30T10:35:34.113Z,23.90
2017-07-30T10:38:01.567Z,24.30
2017-07-30T10:40:29.013Z,24.30
2017-07-30T10:42:56.461Z,24.60
2017-07-30T10:45:23.913Z,24.40
2017-07-30T10:47:51.381Z,24.30
2017-07-30T10:50:18.844Z,24.90
2017-07-30T10:52:46.385Z,24.70
2017-07-30T10:55:13.929Z,25.10
2017-07-30T10:57:41.396Z,26.30
2017-07-30T11:00:09.666Z,27.30
2017-07-30T11:02:37.178Z,27.30
2017-07-30T11:05:04.721Z,27.50
2017-07-30T11:10:06.054Z,28.60
2017-07-30T11:12:33.599Z,29.10
2017-07-30T11:15:01.063Z,29.90
2017-07-30T11:17:29.395Z,30.50
2017-07-30T11:19:56.837Z,30.50
2017-07-30T11:22:24.297Z,31.00
2017-07-30T11:24:51.737Z,31.70
2017-07-30T11:27:19.405Z,30.90
2017-07-30T11:29:47.601Z,32.20
2017-07-30T11:32:15.111Z,32.20
2017-07-30T11:34:43.313Z,31.70
2017-07-30T11:37:10.752Z,31.50
2017-07-30T11:39:38.280Z,31.60
2017-07-30T11:42:05.736Z,31.50
2017-07-30T11:44:33.160Z,31.30
2017-07-30T11:47:00.595Z,31.20
2017-07-30T11:49:28.058Z,32.20
2017-07-30T11:51:55.539Z,31.80
2017-07-30T11:54:22.972Z,31.70
2017-07-30T11:56:50.435Z,31.80
2017-07-30T11:59:17.868Z,31.20
2017-07-30T12:01:45.301Z,31.80
2017-07-30T12:04:13.567Z,32.00
2017-07-30T12:06:41.014Z,32.30
2017-07-30T12:09:08.525Z,32.20
2017-07-30T12:11:35.975Z,32.60
2017-07-30T12:14:03.447Z,32.30
2017-07-30T12:16:30.868Z,32.10
2017-07-30T12:18:58.342Z,32.10
2017-07-30T12:21:25.791Z,32.10
2017-07-30T12:23:53.399Z,32.00
2017-07-30T12:26:20.829Z,32.10
2017-07-30T12:28:48.322Z,33.10
2017-07-30T12:31:15.889Z,32.70
2017-07-30T12:33:43.329Z,32.70
2017-07-30T12:36:11.541Z,31.80
2017-07-30T12:38:39.014Z,31.80
2017-07-30T12:41:06.461Z,32.30
2017-07-30T12:43:33.925Z,31.90
2017-07-30T12:46:01.401Z,31.30
2017-07-30T12:48:28.869Z,31.60
2017-07-30T12:50:56.519Z,32.00
2017-07-30T12:53:23.977Z,31.80
2017-07-30T12:55:51.405Z,32.00
2017-07-30T12:58:18.957Z,32.00
2017-07-30T13:00:46.391Z,31.90
2017-07-30T13:03:13.956Z,32.30
2017-07-30T13:05:42.164Z,30.90
2017-07-30T13:08:09.640Z,31.20
2017-07-30T13:10:37.071Z,31.70
2017-07-30T13:13:04.536Z,31.30
2017-07-30T13:15:31.973Z,31.60
2017-07-30T13:17:59.420Z,31.00
2017-07-30T13:20:26.877Z,30.50
2017-07-30T13:22:54.404Z,30.00
2017-07-30T13:25:21.949Z,30.60
2017-07-30T13:27:49.496Z,30.00
2017-07-30T13:30:16.954Z,30.20
2017-07-30T13:32:44.480Z,30.20
2017-07-30T13:35:12.097Z,30.50
2017-07-30T13:37:39.582Z,30.30
2017-07-30T13:40:07.800Z,30.40
2017-07-30T13:42:35.245Z,29.80
2017-07-30T13:45:02.719Z,29.80
2017-07-30T13:47:30.185Z,29.80
2017-07-30T13:49:57.712Z,29.70
2017-07-30T13:52:25.168Z,29.60
2017-07-30T13:54:53.369Z,29.10
2017-07-30T13:57:20.811Z,29.00
2017-07-30T13:59:48.257Z,29.00
2017-07-30T14:02:15.711Z,29.40
2017-07-30T14:04:43.179Z,29.80
2017-07-30T14:07:10.631Z,29.70
2017-07-30T14:09:38.074Z,29.80
2017-07-30T14:12:05.513Z,30.20
2017-07-30T14:14:33.844Z,31.20
2017-07-30T14:17:01.308Z,30.40
2017-07-30T14:19:28.845Z,30.10
2017-07-30T14:21:56.295Z,30.10
2017-07-30T14:24:23.728Z,30.60
2017-07-30T14:26:51.165Z,30.30
2017-07-30T14:29:18.904Z,30.10
2017-07-30T14:31:46.391Z,29.80
2017-07-30T14:34:13.837Z,29.60
2017-07-30T14:36:42.043Z,29.50
2017-07-30T14:39:09.516Z,29.40
2017-07-30T14:41:36.956Z,29.30
2017-07-30T14:44:04.391Z,29.10
2017-07-30T14:46:31.854Z,28.80
2017-07-30T14:48:59.399Z,28.70
2017-07-30T14:51:26.853Z,28.20
2017-07-30T14:53:54.384Z,28.50
2017-07-30T14:56:21.820Z,28.60
2017-07-30T14:58:49.261Z,29.00
2017-07-30T15:01:16.713Z,30.00
2017-07-30T15:03:44.148Z,31.20
2017-07-30T15:06:11.707Z,32.40
2017-07-30T15:08:39.260Z,33.30
2017-07-30T15:11:07.491Z,34.20
2017-07-30T15:13:34.940Z,34.20
2017-07-30T15:16:02.393Z,35.10
2017-07-30T15:18:29.834Z,35.20
2017-07-30T15:20:57.385Z,34.80
2017-07-30T15:23:24.844Z,35.30
2017-07-30T15:25:53.040Z,35.10
2017-07-30T15:28:20.485Z,35.10
2017-07-30T15:30:47.943Z,35.30
2017-07-30T15:33:15.405Z,35.80
2017-07-30T15:35:42.842Z,36.30
2017-07-30T15:38:10.260Z,36.40
2017-07-30T15:40:37.753Z,36.60
2017-07-30T15:43:05.954Z,36.50
2017-07-30T15:45:33.417Z,36.40
2017-07-30T15:48:00.858Z,36.40
2017-07-30T15:50:28.314Z,36.50
2017-07-30T15:52:55.772Z,36.20
2017-07-30T15:55:23.204Z,35.70
2017-07-30T15:57:50.669Z,35.60
2017-07-30T16:00:18.900Z,36.10
2017-07-30T16:02:46.331Z,35.90
2017-07-30T16:05:13.788Z,35.80
2017-07-30T16:07:41.223Z,35.50
2017-07-30T16:10:08.683Z,35.90
2017-07-30T16:12:36.139Z,36.40
2017-07-30T16:15:04.398Z,37.50
2017-07-30T16:17:31.853Z,37.40
2017-07-30T16:20:00.088Z,39.50
2017-07-30T16:22:27.641Z,39.50
2017-07-30T16:24:55.295Z,42.90
2017-07-30T16:27:22.812Z,43.80
2017-07-30T16:29:50.254Z,44.80
2017-07-30T16:32:17.696Z,46.70
2017-07-30T16:34:45.154Z,47.40
2017-07-30T16:37:12.699Z,48.20
2017-07-30T16:39:40.196Z,48.80
2017-07-30T16:42:07.669Z,48.70
2017-07-30T16:44:35.132Z,48.80
2017-07-30T16:47:02.581Z,48.00
2017-07-30T16:49:30.036Z,48.10
2017-07-30T16:51:58.250Z,49.00
2017-07-30T16:54:25.729Z,49.00
2017-07-30T16:56:53.183Z,49.20
2017-07-30T16:59:21.400Z,49.10
2017-07-30T17:01:48.864Z,49.10
2017-07-30T17:04:16.347Z,48.30
2017-07-30T17:06:44.544Z,47.00
2017-07-30T17:09:12.000Z,47.00
2017-07-30T17:11:39.446Z,47.00
2017-07-30T17:14:06.881Z,46.80
2017-07-30T17:16:34.440Z,46.20
2017-07-30T17:19:01.892Z,45.80
2017-07-30T17:21:29.363Z,46.10
2017-07-30T17:23:56.801Z,46.20
2017-07-30T17:26:25.034Z,46.50
2017-07-30T17:28:52.467Z,46.40
2017-07-30T17:31:19.932Z,46.20
2017-07-30T17:33:47.358Z,46.20
2017-07-30T17:36:14.797Z,47.60
2017-07-30T17:38:42.240Z,47.80
2017-07-30T17:41:09.901Z,47.30
2017-07-30T17:43:37.436Z,47.20
2017-07-30T17:46:04.882Z,46.60
2017-07-30T17:48:32.436Z,47.00
2017-07-30T17:50:59.862Z,46.90
2017-07-30T17:53:27.296Z,46.90
2017-07-30T17:55:54.741Z,46.60
2017-07-30T17:58:22.205Z,47.00
2017-07-30T18:00:49.656Z,46.80
2017-07-30T18:03:17.916Z,47.50
2017-07-30T18:05:46.133Z,47.40
2017-07-30T18:08:13.580Z,47.40
2017-07-30T18:10:41.041Z,47.70
2017-07-30T18:13:08.730Z,47.60
2017-07-30T18:15:36.957Z,48.70
2017-07-30T18:18:04.432Z,48.60
2017-07-30T18:20:32.677Z,48.30
2017-07-30T18:23:00.900Z,48.60
2017-07-30T18:25:28.439Z,48.60
2017-07-30T18:27:55.896Z,49.10
2017-07-30T18:30:23.367Z,49.80
2017-07-30T18:32:50.796Z,50.10
2017-07-30T18:35:18.559Z,50.00
2017-07-30T18:37:46.895Z,50.00
2017-07-30T18:40:14.376Z,50.60
2017-07-30T18:42:41.828Z,50.00
2017-07-30T18:45:09.327Z,49.70
2017-07-30T18:47:36.781Z,50.00
2017-07-30T18:50:04.239Z,49.60
2017-07-30T18:52:31.692Z,49.60
2017-07-30T18:54:59.931Z,50.30
2017-07-30T18:57:28.140Z,50.80
2017-07-30T18:59:55.621Z,50.50
2017-07-30T19:02:23.178Z,50.90
2017-07-30T19:04:51.397Z,53.00
2017-07-30T19:07:18.854Z,52.20
2017-07-30T19:09:46.290Z,52.90
2017-07-30T19:12:13.767Z,53.50
2017-07-30T19:14:41.203Z,54.10
2017-07-30T19:17:08.661Z,55.00
2017-07-30T19:19:36.112Z,55.00
2017-07-30T19:22:04.334Z,56.00
2017-07-30T19:24:31.804Z,55.80
2017-07-30T19:26:59.303Z,56.10
2017-07-30T19:29:26.840Z,56.30
2017-07-30T19:31:54.301Z,56.70
2017-07-30T19:34:21.845Z,57.50
2017-07-30T19:36:49.308Z,58.40
2017-07-30T19:39:16.728Z,58.40
2017-07-30T19:41:44.230Z,59.00
2017-07-30T19:44:12.471Z,59.90
2017-07-30T19:46:39.913Z,59.80
2017-07-30T19:49:07.361Z,59.70
2017-07-30T19:51:35.787Z,60.00
2017-07-30T19:54:03.478Z,60.00
2017-07-30T19:56:31.690Z,61.30
2017-07-30T19:58:59.108Z,61.30
2017-07-30T20:01:26.598Z,60.50
2017-07-30T20:03:54.057Z,60.10
2017-07-30T20:06:21.508Z,60.20
2017-07-30T20:08:50.061Z,60.50
2017-07-30T20:11:18.307Z,60.40
2017-07-30T20:13:45.756Z,60.20
2017-07-30T20:16:14.275Z,59.30
2017-07-30T20:18:41.738Z,59.10
2017-07-30T20:21:09.167Z,59.30
2017-07-30T20:23:36.588Z,60.20
2017-07-30T20:26:04.050Z,59.90
2017-07-30T20:28:31.518Z,60.10
2017-07-30T20:30:58.944Z,58.80
2017-07-30T20:33:26.381Z,58.70
2017-07-30T20:35:53.807Z,58.40
2017-07-30T20:38:21.247Z,58.30
2017-07-30T20:40:48.722Z,57.60
2017-07-30T20:43:16.266Z,57.50
2017-07-30T20:45:43.712Z,57.10
2017-07-30T20:48:11.195Z,57.10
2017-07-30T20:50:38.637Z,57.50
2017-07-30T20:53:06.077Z,58.30
2017-07-30T20:55:33.591Z,58.30
2017-07-30T20:58:01.179Z,57.00
2017-07-30T21:00:29.275Z,57.10
2017-07-30T21:02:56.938Z,56.20
2017-07-30T21:05:25.061Z,56.30
2017-07-30T21:07:53.252Z,56.60
2017-07-30T21:10:20.693Z,56.60
2017-07-30T21:12:48.192Z,56.40
2017-07-30T21:15:15.720Z,56.30
2017-07-30T21:17:43.177Z,59.50
2017-07-30T21:20:11.383Z,72.70
2017-07-30T21:22:38.908Z,72.20
2017-07-30T21:25:06.356Z,68.90
2017-07-30T21:27:33.892Z,72.60
2017-07-30T21:30:01.425Z,72.40
2017-07-30T21:32:29.657Z,78.70
2017-07-30T21:34:57.130Z,78.60
2017-07-30T21:37:25.341Z,81.50
2017-07-30T21:39:52.917Z,81.40
2017-07-30T21:42:20.367Z,79.80
2017-07-30T21:44:48.593Z,82.70
2017-07-30T21:47:16.032Z,82.70
2017-07-30T21:49:43.498Z,81.60
2017-07-30T21:52:10.936Z,82.90
2017-07-30T21:54:38.494Z,80.30
2017-07-30T21:57:06.040Z,80.10
2017-07-30T21:59:33.573Z,79.30
2017-07-30T22:02:01.009Z,81.30
2017-07-30T22:04:28.453Z,81.30
2017-07-30T22:06:55.897Z,78.60
2017-07-30T22:09:23.557Z,77.80
2017-07-30T22:11:51.104Z,78.80
2017-07-30T22:14:18.672Z,77.40
2017-07-30T22:16:46.941Z,76.60
2017-07-30T22:19:14.396Z,76.60
2017-07-30T22:21:41.882Z,79.50
2017-07-30T22:24:09.337Z,78.50
2017-07-30T22:26:36.789Z,81.00
2017-07-30T22:29:05.014Z,80.30
2017-07-30T22:31:32.478Z,80.10
2017-07-30T22:33:59.905Z,81.10
2017-07-30T22:36:27.364Z,79.70
2017-07-30T22:38:54.805Z,78.90
2017-07-30T22:41:22.237Z,79.80
2017-07-30T22:43:49.710Z,79.70
2017-07-30T22:46:17.895Z,79.90
2017-07-30T22:48:45.340Z,79.80
2017-07-30T22:51:12.805Z,79.00
2017-07-30T22:53:40.242Z,77.60
2017-07-30T22:56:07.783Z,75.30
2017-07-30T22:58:35.242Z,75.10
2017-07-30T23:01:02.679Z,74.30
2017-07-30T23:03:30.128Z,77.50
2017-07-30T23:05:57.568Z,77.70
2017-07-30T23:08:25.025Z,80.00
2017-07-30T23:10:52.448Z,79.80
2017-07-30T23:13:19.892Z,79.50
2017-07-30T23:15:47.348Z,80.40
2017-07-30T23:18:14.793Z,80.00
2017-07-30T23:20:42.239Z,84.60
2017-07-30T23:23:09.688Z,81.80
2017-07-30T23:25:37.133Z,85.30
2017-07-30T23:28:04.580Z,84.20
2017-07-30T23:30:32.037Z,89.10
2017-07-30T23:33:00.294Z,88.40
2017-07-30T23:35:28.513Z,85.00
2017-07-30T23:37:55.952Z,84.80
2017-07-30T23:40:23.372Z,88.50
2017-07-30T23:42:50.865Z,86.00
2017-07-30T23:45:18.309Z,86.90
2017-07-30T23:47:45.738Z,88.20
2017-07-30T23:50:13.174Z,84.30
2017-07-30T23:52:40.613Z,85.60
2017-07-30T23:55:08.047Z,86.40
2017-07-30T23:57:35.493Z,87.50
